Time;durP1;ratioP1;P1;durP2;ratioP2;P2;SDS_P1;SDS_P2;PMS_P1;PMS_P2;Temp;Humidity;BMP_temperature;BMP_pressure;BME280_temperature;BME280_humidity;BME280_pressure;Samples;Min_cycle;Max_cycle;Signal;HPM_P1;HPM_P2
2024/03/28 00:02:09;;;;;;;18.25;5.30;;;21.50;99.90;;;;;;5013337;28;20053;-54
2024/03/28 00:04:35;;;;;;;17.48;4.00;;;21.50;99.90;;;;;;5013139;28;20029;-52
2024/03/28 00:07:02;;;;;;;16.98;5.13;;;21.50;99.90;;;;;;5012921;28;20029;-51
2024/03/28 00:09:28;;;;;;;14.80;3.65;;;21.50;99.90;;;;;;5013120;28;20081;-51
2024/03/28 00:11:54;;;;;;;23.98;4.38;;;21.50;99.90;;;;;;5013634;28;20356;-52
2024/03/28 00:14:19;;;;;;;14.05;4.28;;;21.50;99.90;;;;;;5013418;28;20049;-52
2024/03/28 00:16:46;;;;;;;19.13;4.50;;;21.50;99.90;;;;;;4995390;28;20048;-51
2024/03/28 00:19:12;;;;;;;10.90;3.08;;;21.50;99.90;;;;;;4995271;28;20029;-52
2024/03/28 00:21:38;;;;;;;12.85;4.10;;;21.50;99.90;;;;;;5013232;28;20401;-53
2024/03/28 00:24:04;;;;;;;11.00;3.35;;;21.50;99.90;;;;;;5012820;28;20037;-53
2024/03/28 00:26:30;;;;;;;10.55;3.58;;;21.50;99.90;;;;;;5012872;28;20482;-52
2024/03/28 00:28:56;;;;;;;32.42;4.13;;;21.50;99.90;;;;;;5013286;28;20056;-52
2024/03/28 00:31:22;;;;;;;18.42;4.47;;;21.50;99.90;;;;;;5012938;28;20113;-52
2024/03/28 00:33:48;;;;;;;10.25;3.55;;;21.50;99.90;;;;;;4995379;28;20065;-52
2024/03/28 00:36:14;;;;;;;11.82;3.35;;;21.50;99.90;;;;;;5012959;28;20026;-52
2024/03/28 00:38:39;;;;;;;13.50;3.42;;;21.50;99.90;;;;;;5012634;28;20037;-52
2024/03/28 00:41:05;;;;;;;9.05;2.92;;;21.50;99.90;;;;;;5012903;28;20101;-52
2024/03/28 00:43:31;;;;;;;10.43;3.08;;;21.50;99.90;;;;;;5014803;28;20493;-52
2024/03/28 00:46:00;;;;;;;9.55;3.08;;;21.50;99.90;;;;;;4998935;28;20032;-53
2024/03/28 00:48:26;;;;;;;12.57;4.22;;;21.50;99.90;;;;;;5017083;28;20030;-51
2024/03/28 00:50:59;;;;;;;18.45;4.00;;;21.50;99.90;;;;;;5016910;28;20048;-51
2024/03/28 00:53:25;;;;;;;11.20;3.63;;;21.50;99.90;;;;;;5016732;28;20029;-51
2024/03/28 00:55:51;;;;;;;9.80;3.28;;;21.50;99.90;;;;;;5017078;28;20377;-52
2024/03/28 00:58:18;;;;;;;10.68;3.60;;;21.40;99.90;;;;;;5016573;28;20026;-53
2024/03/28 01:00:45;;;;;;;12.63;3.13;;;21.40;99.90;;;;;;5016104;28;20050;-54
2024/03/28 01:03:11;;;;;;;12.77;4.05;;;21.40;99.90;;;;;;5016722;28;20037;-53
2024/03/28 01:05:38;;;;;;;11.73;3.72;;;21.40;99.90;;;;;;5016865;28;20096;-53
2024/03/28 01:08:04;;;;;;;16.42;3.70;;;21.40;99.90;;;;;;5016322;28;20057;-53
2024/03/28 01:10:30;;;;;;;11.25;3.03;;;21.40;99.90;;;;;;5016437;28;20370;-54
2024/03/28 01:12:56;;;;;;;10.77;3.15;;;21.50;99.90;;;;;;5011691;28;20014;-53
2024/03/28 01:15:21;;;;;;;6.90;2.47;;;21.40;99.90;;;;;;5016148;28;20089;-53
2024/03/28 01:17:47;;;;;;;9.95;3.00;;;21.40;99.90;;;;;;5016287;28;20030;-53
2024/03/28 01:20:13;;;;;;;13.75;4.20;;;21.40;99.90;;;;;;5016244;28;20014;-52
2024/03/28 01:22:39;;;;;;;12.55;2.83;;;21.40;99.90;;;;;;5021690;28;20029;-51
2024/03/28 01:25:06;;;;;;;8.80;2.95;;;21.40;99.90;;;;;;5019974;28;20050;-53
2024/03/28 01:27:34;;;;;;;10.30;3.15;;;21.40;99.90;;;;;;5016274;28;20033;-51
2024/03/28 01:30:00;;;;;;;13.45;4.07;;;21.40;99.90;;;;;;5015357;28;20034;-51
2024/03/28 01:32:26;;;;;;;11.57;3.53;;;21.40;99.90;;;;;;5016058;28;20014;-52
2024/03/28 01:34:52;;;;;;;11.95;3.22;;;21.40;99.90;;;;;;5016207;28;20029;-52
2024/03/28 01:37:19;;;;;;;11.48;3.97;;;21.40;99.90;;;;;;5015281;28;20029;-53
2024/03/28 01:39:47;;;;;;;14.05;3.33;;;21.40;99.90;;;;;;5007091;28;20022;-51
2024/03/28 01:42:13;;;;;;;9.00;3.15;;;21.40;99.90;;;;;;4998610;28;20041;-52
2024/03/28 01:44:39;;;;;;;7.15;2.67;;;21.40;99.90;;;;;;5013088;28;20432;-51
2024/03/28 01:47:05;;;;;;;12.25;4.00;;;21.40;99.90;;;;;;4997845;28;20033;-51
2024/03/28 01:49:32;;;;;;;9.68;3.05;;;21.40;99.90;;;;;;5014885;28;20381;-52
2024/03/28 01:52:02;;;;;;;16.08;3.17;;;21.40;99.90;;;;;;5010562;28;20030;-52
2024/03/28 01:54:30;;;;;;;7.95;2.88;;;21.30;99.90;;;;;;5014416;28;20026;-52
2024/03/28 01:56:58;;;;;;;12.10;3.67;;;21.30;99.90;;;;;;5015795;28;20057;-52
2024/03/28 01:59:24;;;;;;;10.63;4.18;;;21.30;99.90;;;;;;5011717;28;20097;-52
2024/03/28 02:01:51;;;;;;;9.95;3.33;;;21.30;99.90;;;;;;5013722;23;20141;-43
2024/03/28 02:04:18;;;;;;;8.85;3.05;;;21.30;99.90;;;;;;4990586;28;20390;-43
2024/03/28 02:06:44;;;;;;;7.50;3.23;;;21.30;99.90;;;;;;4996063;28;20026;-43
2024/03/28 02:09:10;;;;;;;10.45;3.65;;;21.30;99.90;;;;;;4995281;28;20275;-45
2024/03/28 02:11:36;;;;;;;12.82;3.80;;;21.30;99.90;;;;;;4995987;28;20159;-43
2024/03/28 02:14:02;;;;;;;14.13;4.03;;;21.30;99.90;;;;;;4995661;28;20176;-43
2024/03/28 02:16:35;;;;;;;11.55;3.78;;;21.30;99.90;;;;;;4995243;28;20506;-43
2024/03/28 02:19:01;;;;;;;10.48;3.67;;;21.30;99.90;;;;;;4978413;28;20022;-43
2024/03/28 02:21:26;;;;;;;8.82;3.28;;;21.30;99.90;;;;;;4976446;28;20418;-43
2024/03/28 02:23:54;;;;;;;15.55;4.63;;;21.30;99.90;;;;;;4982159;28;20041;-43
2024/03/28 02:26:21;;;;;;;11.50;3.55;;;21.30;99.90;;;;;;4975790;28;20106;-43
2024/03/28 02:28:47;;;;;;;11.43;3.70;;;21.30;99.90;;;;;;4975742;28;20034;-43
2024/03/28 02:31:13;;;;;;;10.80;4.00;;;21.30;99.90;;;;;;4980993;28;20027;-43
2024/03/28 02:33:39;;;;;;;11.68;4.50;;;21.20;99.90;;;;;;4976704;28;20030;-43
2024/03/28 02:36:05;;;;;;;14.73;3.78;;;21.20;99.90;;;;;;4974677;28;20034;-43
2024/03/28 02:38:32;;;;;;;10.73;4.13;;;21.20;99.90;;;;;;4975633;28;20480;-43
2024/03/28 02:40:58;;;;;;;12.60;3.95;;;21.30;99.90;;;;;;4977214;28;20077;-43
2024/03/28 02:43:24;;;;;;;9.57;3.75;;;21.20;99.90;;;;;;4980130;28;20030;-45
2024/03/28 02:45:50;;;;;;;15.02;4.47;;;21.20;99.90;;;;;;4994477;28;20459;-43
2024/03/28 02:48:17;;;;;;;12.02;4.00;;;21.20;99.90;;;;;;4995449;28;20394;-43
2024/03/28 02:50:42;;;;;;;11.90;4.63;;;21.20;99.90;;;;;;4980448;28;20054;-43
2024/03/28 02:53:08;;;;;;;8.20;3.33;;;21.20;99.90;;;;;;4975271;28;20031;-45
2024/03/28 02:55:34;;;;;;;12.35;3.38;;;21.20;99.90;;;;;;4974750;28;20022;-43
2024/03/28 02:58:00;;;;;;;11.55;3.80;;;21.20;99.90;;;;;;4975754;28;20029;-44
2024/03/28 03:00:26;;;;;;;9.10;3.13;;;21.20;99.90;;;;;;4999105;23;20010;-46
2024/03/28 03:02:52;;;;;;;10.38;3.45;;;21.10;99.90;;;;;;5073607;28;20072;-46
2024/03/28 03:05:20;;;;;;;12.90;3.85;;;21.10;99.90;;;;;;5054012;28;20466;-47
2024/03/28 03:07:46;;;;;;;;;;;21.10;99.90;;;;;;5065697;28;20035;-47
2024/03/28 03:10:14;;;;;;;13.40;5.20;;;21.10;99.90;;;;;;5053431;28;19915;-47
2024/03/28 03:12:40;;;;;;;9.73;3.53;;;21.10;99.90;;;;;;5053277;28;20151;-47
2024/03/28 03:15:06;;;;;;;12.48;3.70;;;21.10;99.90;;;;;;5054098;28;20104;-47
2024/03/28 03:17:32;;;;;;;9.25;3.75;;;21.10;99.90;;;;;;5060541;28;20193;-47
2024/03/28 03:19:59;;;;;;;9.68;3.88;;;21.10;99.90;;;;;;5073311;28;20028;-47
2024/03/28 03:22:26;;;;;;;10.87;3.47;;;21.10;99.90;;;;;;5054411;28;20029;-47
2024/03/28 03:24:58;;;;;;;10.30;3.33;;;21.00;99.90;;;;;;5068261;28;20039;-47
2024/03/28 03:27:32;;;;;;;11.35;3.75;;;21.00;99.90;;;;;;5054838;28;20039;-47
2024/03/28 03:35:29;;;;;;;7.97;3.40;;;21.00;99.90;;;;;;5055757;28;20067;-46
2024/03/28 03:37:55;;;;;;;14.52;3.65;;;21.00;99.90;;;;;;5053008;28;20037;-46
2024/03/28 03:40:21;;;;;;;11.13;3.85;;;21.00;99.90;;;;;;5052622;28;20024;-47
2024/03/28 03:42:46;;;;;;;10.88;4.47;;;21.00;99.90;;;;;;5053085;28;20021;-47
2024/03/28 03:45:12;;;;;;;11.25;3.70;;;21.00;99.90;;;;;;5054769;28;20064;-47
2024/03/28 03:47:38;;;;;;;10.88;3.60;;;21.00;99.90;;;;;;5052793;28;20385;-47
2024/03/28 03:50:04;;;;;;;15.25;4.18;;;20.90;99.90;;;;;;5053599;28;20025;-46
2024/03/28 03:52:30;;;;;;;11.60;4.10;;;20.90;99.90;;;;;;5061665;28;20013;-46
2024/03/28 03:54:56;;;;;;;14.40;3.70;;;20.90;99.90;;;;;;5053665;28;20366;-46
2024/03/28 03:57:21;;;;;;;13.27;3.70;;;20.90;99.90;;;;;;5052735;28;20060;-47
2024/03/28 03:59:47;;;;;;;12.95;3.78;;;20.90;99.90;;;;;;5052912;28;20021;-46
2024/03/28 04:02:13;;;;;;;8.10;3.38;;;20.90;99.90;;;;;;5061255;23;20494;-43
2024/03/28 04:04:39;;;;;;;12.00;4.05;;;20.90;99.90;;;;;;5052580;28;20083;-44
2024/03/28 04:07:04;;;;;;;10.32;3.65;;;20.90;99.90;;;;;;5033961;28;20036;-44
2024/03/28 04:09:30;;;;;;;11.82;3.17;;;20.90;99.90;;;;;;5052449;28;20017;-44
2024/03/28 04:11:56;;;;;;;16.08;4.22;;;20.90;99.90;;;;;;5051368;28;20485;-44
2024/03/28 04:14:22;;;;;;;18.35;4.07;;;20.90;99.90;;;;;;5052276;28;20108;-44
2024/03/28 04:16:47;;;;;;;10.63;3.28;;;20.90;99.90;;;;;;5052084;28;20502;-43
2024/03/28 04:19:13;;;;;;;12.25;3.72;;;20.90;99.90;;;;;;5049971;28;20031;-44
2024/03/28 04:21:40;;;;;;;9.98;3.17;;;20.90;99.90;;;;;;5032715;28;20025;-44
2024/03/28 04:24:06;;;;;;;12.90;4.03;;;20.90;99.90;;;;;;5042188;28;20032;-44
2024/03/28 04:26:33;;;;;;;16.65;3.35;;;20.90;99.90;;;;;;5052095;28;20025;-44
2024/03/28 04:28:59;;;;;;;20.95;3.80;;;20.90;99.90;;;;;;5051193;28;20362;-44
2024/03/28 04:31:25;;;;;;;10.82;3.20;;;20.90;99.90;;;;;;5052270;28;20035;-44
2024/03/28 04:33:52;;;;;;;15.43;3.72;;;20.90;99.90;;;;;;5034297;28;20381;-44
2024/03/28 04:36:18;;;;;;;13.32;4.15;;;20.90;99.90;;;;;;5052591;28;20029;-44
2024/03/28 04:38:44;;;;;;;12.90;3.58;;;20.90;99.90;;;;;;5050867;28;20021;-44
2024/03/28 04:41:11;;;;;;;13.25;3.40;;;20.80;99.90;;;;;;5052202;28;20091;-44
2024/03/28 04:43:38;;;;;;;11.45;3.72;;;20.90;99.90;;;;;;5058874;28;20037;-43
2024/03/28 04:46:04;;;;;;;11.90;3.15;;;20.80;99.90;;;;;;5033280;28;20370;-44
2024/03/28 04:48:30;;;;;;;13.63;4.32;;;20.80;99.90;;;;;;5052365;28;20029;-44
2024/03/28 04:50:57;;;;;;;17.02;4.47;;;20.80;99.90;;;;;;5050544;28;20025;-43
2024/03/28 04:53:23;;;;;;;9.57;3.20;;;20.80;99.90;;;;;;5048985;28;20091;-44
2024/03/28 04:55:49;;;;;;;11.60;3.33;;;20.80;99.90;;;;;;5050511;28;20040;-44
2024/03/28 04:58:15;;;;;;;13.85;4.43;;;20.80;99.90;;;;;;5050716;28;20028;-44
2024/03/28 05:00:41;;;;;;;15.82;4.28;;;20.80;99.90;;;;;;5051122;28;20036;-44
2024/03/28 05:03:07;;;;;;;10.07;3.30;;;20.80;99.90;;;;;;5051439;28;20079;-44
2024/03/28 05:05:33;;;;;;;13.30;3.85;;;20.80;99.90;;;;;;5050109;28;20021;-44
2024/03/28 05:07:59;;;;;;;12.60;4.53;;;20.80;99.90;;;;;;5051564;28;20029;-43
2024/03/28 05:10:25;;;;;;;14.80;4.82;;;20.80;99.90;;;;;;5035139;28;20018;-44
2024/03/28 05:12:51;;;;;;;13.13;5.47;;;20.70;99.90;;;;;;5052275;28;20078;-44
2024/03/28 05:15:17;;;;;;;13.32;4.38;;;20.70;99.90;;;;;;5051010;28;20108;-44
2024/03/28 05:17:43;;;;;;;16.77;4.85;;;20.70;99.90;;;;;;5051824;28;20025;-44
2024/03/28 05:20:12;;;;;;;12.07;3.80;;;20.70;99.90;;;;;;5051611;28;20025;-44
2024/03/28 05:22:38;;;;;;;15.13;4.60;;;20.80;99.90;;;;;;5050822;28;20052;-44
2024/03/28 05:25:05;;;;;;;14.63;4.43;;;20.70;99.90;;;;;;5051860;28;20381;-44
2024/03/28 05:27:34;;;;;;;14.85;4.22;;;20.70;99.90;;;;;;5033921;28;20032;-43
2024/03/28 05:30:01;;;;;;;12.43;3.83;;;20.70;99.90;;;;;;5054232;28;20099;-44
2024/03/28 05:32:26;;;;;;;11.02;4.60;;;20.70;99.90;;;;;;5054428;28;20516;-44
2024/03/28 05:34:52;;;;;;;14.63;3.97;;;20.70;99.90;;;;;;5055537;28;20032;-44
2024/03/28 05:37:18;;;;;;;14.95;4.65;;;20.70;99.90;;;;;;5055140;28;20477;-43
2024/03/28 05:39:44;;;;;;;15.25;4.28;;;20.70;99.90;;;;;;5055466;28;20029;-43
2024/03/28 05:42:10;;;;;;;12.48;4.25;;;20.70;99.90;;;;;;5053882;28;20048;-43
2024/03/28 05:44:35;;;;;;;14.68;5.13;;;20.70;99.90;;;;;;5037729;28;20033;-43
2024/03/28 05:47:01;;;;;;;17.35;4.82;;;20.70;99.90;;;;;;5054872;28;20600;-44
2024/03/28 05:49:27;;;;;;;12.85;4.22;;;20.70;99.90;;;;;;5054144;28;20029;-43
2024/03/28 05:51:53;;;;;;;17.30;4.95;;;20.60;99.90;;;;;;5055400;28;20037;-44
2024/03/28 05:54:18;;;;;;;10.80;4.45;;;20.60;99.90;;;;;;5037409;28;20355;-43
2024/03/28 05:56:44;;;;;;;16.40;4.57;;;20.60;99.90;;;;;;5037200;28;20017;-43
2024/03/28 05:59:10;;;;;;;13.35;4.65;;;20.60;99.90;;;;;;5029535;28;20030;-43
2024/03/28 06:01:36;;;;;;;12.75;4.45;;;20.70;99.90;;;;;;5053107;28;20040;-44
2024/03/28 06:04:03;;;;;;;13.23;4.78;;;20.60;99.90;;;;;;5054526;28;20052;-44
2024/03/28 06:06:28;;;;;;;17.13;5.17;;;20.60;99.90;;;;;;5054979;28;20469;-44
2024/03/28 06:08:55;;;;;;;15.55;4.47;;;20.60;99.90;;;;;;5053454;28;20036;-44
2024/03/28 06:11:20;;;;;;;15.55;5.38;;;20.60;99.90;;;;;;5054680;28;20021;-43
2024/03/28 06:13:46;;;;;;;15.05;4.85;;;20.60;99.90;;;;;;5055136;28;20485;-44
2024/03/28 06:16:12;;;;;;;13.88;5.07;;;20.60;99.90;;;;;;5055486;28;20029;-44
2024/03/28 06:18:38;;;;;;;9.88;3.83;;;20.60;99.90;;;;;;5037490;28;20017;-46
2024/03/28 06:21:05;;;;;;;14.57;4.68;;;20.60;99.90;;;;;;5055424;28;20435;-44
2024/03/28 06:23:31;;;;;;;13.57;4.32;;;20.60;99.90;;;;;;5055526;28;20095;-44
2024/03/28 06:26:01;;;;;;;14.38;4.78;;;20.60;99.90;;;;;;5055318;28;20031;-45
2024/03/28 06:28:27;;;;;;;12.88;4.53;;;20.60;99.90;;;;;;5055068;28;20048;-44
2024/03/28 06:30:56;;;;;;;11.65;4.75;;;20.60;99.90;;;;;;5054001;28;20036;-44
2024/03/28 06:33:30;;;;;;;15.32;4.53;;;20.60;99.90;;;;;;5055029;28;20021;-44
2024/03/28 06:35:56;;;;;;;12.60;5.30;;;20.60;99.90;;;;;;5055180;28;20473;-44
2024/03/28 06:38:22;;;;;;;9.63;3.92;;;20.50;99.90;;;;;;5055328;28;20044;-44
2024/03/28 06:40:58;;;;;;;11.55;5.75;;;20.50;99.90;;;;;;5054181;28;20457;-44
2024/03/28 06:43:23;;;;;;;12.27;4.20;;;20.50;99.90;;;;;;5054971;28;20032;-44
2024/03/28 06:45:49;;;;;;;11.35;4.28;;;20.50;99.90;;;;;;5054855;28;20025;-44
2024/03/28 06:48:15;;;;;;;16.27;4.57;;;20.60;99.90;;;;;;5055196;28;20496;-44
2024/03/28 06:50:41;;;;;;;13.40;4.38;;;20.50;99.90;;;;;;5054901;28;20021;-44
2024/03/28 06:53:06;;;;;;;15.98;5.35;;;20.50;99.90;;;;;;5054622;28;20025;-44
2024/03/28 06:55:32;;;;;;;13.60;4.35;;;20.50;99.90;;;;;;5054520;28;20021;-44
2024/03/28 06:57:58;;;;;;;10.90;3.88;;;20.50;99.90;;;;;;5054666;28;20029;-45
2024/03/28 07:00:24;;;;;;;14.75;4.68;;;20.50;99.90;;;;;;5054523;28;20091;-44
2024/03/28 07:02:50;;;;;;;12.88;4.47;;;20.50;99.90;;;;;;5054251;28;20076;-43
2024/03/28 07:05:16;;;;;;;12.75;3.95;;;20.50;99.90;;;;;;5036993;28;20048;-44
2024/03/28 07:07:42;;;;;;;12.68;4.18;;;20.50;99.90;;;;;;5054625;28;20511;-44
2024/03/28 07:10:08;;;;;;;12.98;4.88;;;20.50;99.90;;;;;;5054308;28;20064;-44
2024/03/28 07:12:37;;;;;;;15.00;4.90;;;20.50;99.90;;;;;;5036741;28;20025;-44
2024/03/28 07:15:04;;;;;;;12.70;3.75;;;20.50;99.90;;;;;;5054237;28;20021;-43
2024/03/28 07:17:30;;;;;;;12.85;4.10;;;20.50;99.90;;;;;;5054230;28;20055;-44
2024/03/28 07:19:56;;;;;;;13.00;4.55;;;20.50;99.90;;;;;;5054315;28;20442;-43
2024/03/28 07:22:22;;;;;;;12.02;4.38;;;20.50;99.90;;;;;;5054262;28;20033;-44
2024/03/28 07:24:48;;;;;;;14.30;4.05;;;20.50;99.90;;;;;;5054198;28;20388;-45
2024/03/28 07:27:14;;;;;;;9.90;3.33;;;20.50;99.90;;;;;;5054218;28;20027;-44
2024/03/28 07:29:40;;;;;;;13.18;4.18;;;20.50;99.90;;;;;;5053941;28;20021;-44
2024/03/28 07:32:06;;;;;;;13.30;5.28;;;20.50;99.90;;;;;;5054240;28;20021;-45
2024/03/28 07:34:32;;;;;;;15.00;4.72;;;20.50;99.90;;;;;;5053974;28;20029;-44
2024/03/28 07:36:57;;;;;;;11.88;4.43;;;20.50;99.90;;;;;;5036337;28;20028;-44
2024/03/28 07:39:23;;;;;;;9.60;3.78;;;20.50;99.90;;;;;;5053806;28;20033;-45
2024/03/28 07:41:49;;;;;;;11.57;4.22;;;20.50;99.90;;;;;;5053906;28;20025;-43
2024/03/28 07:44:15;;;;;;;8.40;3.75;;;20.50;99.90;;;;;;5054008;28;20029;-45
2024/03/28 07:46:41;;;;;;;14.10;4.78;;;20.50;99.90;;;;;;5053764;28;20025;-44
2024/03/28 07:49:07;;;;;;;14.23;4.18;;;20.50;99.90;;;;;;5036149;28;20373;-44
2024/03/28 07:51:33;;;;;;;11.52;4.88;;;20.50;99.90;;;;;;5053566;28;20032;-44
2024/03/28 07:53:58;;;;;;;11.38;4.18;;;20.50;99.90;;;;;;5053519;28;20025;-44
2024/03/28 07:56:24;;;;;;;16.02;4.95;;;20.50;99.90;;;;;;5053616;28;20057;-44
2024/03/28 07:58:50;;;;;;;11.00;4.40;;;20.50;99.90;;;;;;5053554;28;20025;-45
2024/03/28 08:01:16;;;;;;;9.98;3.58;;;20.50;99.90;;;;;;5053466;28;20080;-44
2024/03/28 08:03:42;;;;;;;12.07;4.47;;;20.50;99.90;;;;;;5053462;28;20040;-44
2024/03/28 08:06:08;;;;;;;12.88;4.38;;;20.60;99.90;;;;;;5035623;28;20078;-44
2024/03/28 08:08:35;;;;;;;9.18;3.70;;;20.60;99.90;;;;;;5053304;28;20025;-44
2024/03/28 08:11:01;;;;;;;14.15;4.53;;;20.60;99.90;;;;;;5053533;28;20013;-44
2024/03/28 08:13:27;;;;;;;10.85;4.63;;;20.50;99.90;;;;;;5053278;28;20029;-44
2024/03/28 08:15:54;;;;;;;10.60;4.95;;;20.50;99.90;;;;;;5053213;28;20025;-44
2024/03/28 08:18:20;;;;;;;14.05;4.50;;;20.60;99.90;;;;;;5053780;28;20047;-44
2024/03/28 08:20:47;;;;;;;14.63;4.40;;;20.60;99.90;;;;;;5035387;28;20092;-44
2024/03/28 08:23:13;;;;;;;10.27;4.32;;;20.50;99.90;;;;;;5053104;28;20029;-44
2024/03/28 08:25:39;;;;;;;14.57;4.55;;;20.60;99.90;;;;;;5035186;28;20033;-45
2024/03/28 08:28:10;;;;;;;11.38;4.15;;;20.50;99.90;;;;;;5053282;28;20036;-44
2024/03/28 08:30:37;;;;;;;13.00;4.50;;;20.60;99.90;;;;;;5053162;28;20159;-45
2024/03/28 08:33:03;;;;;;;11.23;4.22;;;20.60;99.90;;;;;;5053407;28;20025;-44
2024/03/28 08:35:33;;;;;;;9.50;3.45;;;20.50;99.90;;;;;;5053188;28;20025;-44
2024/03/28 08:37:59;;;;;;;10.77;3.83;;;20.50;99.90;;;;;;5053191;28;20061;-44
2024/03/28 08:40:25;;;;;;;8.15;3.50;;;20.50;99.90;;;;;;5053186;28;20155;-44
2024/03/28 08:42:50;;;;;;;9.93;3.40;;;20.60;99.90;;;;;;5052883;28;20112;-44
2024/03/28 08:45:18;;;;;;;10.13;3.88;;;20.50;99.90;;;;;;5053056;28;20159;-44
2024/03/28 08:47:45;;;;;;;7.25;3.40;;;20.50;99.90;;;;;;5052955;28;20025;-44
2024/03/28 08:50:13;;;;;;;7.40;3.72;;;20.50;99.90;;;;;;5052937;28;20385;-45
2024/03/28 08:52:40;;;;;;;11.82;3.67;;;20.50;99.90;;;;;;5052936;28;20036;-45
2024/03/28 08:55:10;;;;;;;15.38;4.18;;;20.50;99.90;;;;;;5035195;28;20033;-45
2024/03/28 08:57:40;;;;;;;5.60;2.80;;;20.50;99.90;;;;;;5053205;28;20027;-44
2024/03/28 09:00:14;;;;;;;7.80;3.25;;;20.50;99.90;;;;;;5052834;28;20048;-44
2024/03/28 09:02:44;;;;;;;10.90;3.60;;;20.50;99.90;;;;;;5052459;28;20170;-44
2024/03/28 09:05:09;;;;;;;6.50;3.30;;;20.50;99.90;;;;;;5055489;28;20393;-44
2024/03/28 09:07:36;;;;;;;10.18;3.60;;;20.50;99.90;;;;;;5056846;28;20021;-44
2024/03/28 09:10:06;;;;;;;8.25;3.67;;;20.50;99.90;;;;;;5038875;28;20554;-44
2024/03/28 09:12:37;;;;;;;9.23;3.72;;;20.50;99.90;;;;;;5055521;28;20040;-46
2024/03/28 09:15:04;;;;;;;6.45;3.30;;;20.50;99.90;;;;;;5056748;28;20025;-46
2024/03/28 09:17:29;;;;;;;7.55;3.55;;;20.50;99.90;;;;;;5038838;28;20017;-45
2024/03/28 09:19:58;;;;;;;8.35;3.25;;;20.50;99.90;;;;;;5056729;28;20032;-46
2024/03/28 09:22:24;;;;;;;12.35;4.40;;;20.40;99.90;;;;;;5056624;28;20037;-45
2024/03/28 09:24:50;;;;;;;6.82;3.70;;;20.40;99.90;;;;;;5056322;28;20381;-45
2024/03/28 09:27:16;;;;;;;8.82;3.60;;;20.50;99.90;;;;;;5056645;28;20036;-45
2024/03/28 09:29:42;;;;;;;11.35;3.80;;;20.40;99.90;;;;;;5056308;28;20025;-45
2024/03/28 09:32:08;;;;;;;8.25;3.47;;;20.40;99.90;;;;;;5055064;28;20486;-46
2024/03/28 09:34:37;;;;;;;9.55;3.13;;;20.40;99.90;;;;;;5056403;28;20021;-46
2024/03/28 09:37:03;;;;;;;9.43;4.00;;;20.40;99.90;;;;;;5056566;28;20032;-45
2024/03/28 09:39:29;;;;;;;7.25;3.40;;;20.40;99.90;;;;;;5056251;28;20029;-46
2024/03/28 09:41:59;;;;;;;11.00;3.33;;;20.40;99.90;;;;;;5056108;28;20025;-45
2024/03/28 09:44:25;;;;;;;9.32;3.40;;;20.40;99.90;;;;;;5056294;28;20025;-45
2024/03/28 09:46:52;;;;;;;5.05;2.63;;;20.40;99.90;;;;;;5056128;28;20028;-45
2024/03/28 09:49:23;;;;;;;11.32;3.58;;;20.50;99.90;;;;;;5056140;28;20389;-45
2024/03/28 09:51:52;;;;;;;9.80;3.60;;;20.50;99.90;;;;;;5056197;28;20124;-43
2024/03/28 09:54:18;;;;;;;11.30;3.67;;;20.50;99.90;;;;;;5055901;28;20025;-43
2024/03/28 09:56:44;;;;;;;6.78;3.13;;;20.50;99.90;;;;;;5055767;28;20025;-45
2024/03/28 09:59:11;;;;;;;8.40;2.72;;;20.50;99.90;;;;;;5037813;28;20381;-45
2024/03/28 10:01:39;;;;;;;5.80;3.40;;;20.50;99.90;;;;;;5055581;28;20052;-45
2024/03/28 10:04:18;;;;;;;7.05;3.38;;;20.50;99.90;;;;;;5056029;28;20037;-45
2024/03/28 10:06:48;;;;;;;7.50;3.00;;;20.50;99.90;;;;;;5055872;28;20390;-44
2024/03/28 10:09:19;;;;;;;9.38;3.33;;;20.50;99.90;;;;;;5055593;28;20036;-44
2024/03/28 10:11:45;;;;;;;9.20;3.70;;;20.50;99.90;;;;;;5056062;28;20060;-45
2024/03/28 10:14:16;;;;;;;12.40;4.55;;;20.50;99.90;;;;;;5055422;28;20114;-45
2024/03/28 10:16:42;;;;;;;9.15;3.67;;;20.50;99.90;;;;;;5054373;28;20028;-45
2024/03/28 10:19:09;;;;;;;8.32;2.88;;;20.50;99.90;;;;;;5055380;28;20032;-46
2024/03/28 10:21:38;;;;;;;8.02;3.00;;;20.50;99.90;;;;;;5055639;28;20025;-45
2024/03/28 10:24:05;;;;;;;8.40;3.80;;;20.50;99.90;;;;;;5037387;28;20033;-44
2024/03/28 10:26:33;;;;;;;7.40;3.00;;;20.50;99.90;;;;;;5055623;28;20017;-43
2024/03/28 10:29:00;;;;;;;8.07;3.70;;;20.60;99.90;;;;;;5055373;28;20098;-45
2024/03/28 10:31:26;;;;;;;10.20;4.00;;;20.60;99.90;;;;;;5055268;28;20031;-47
2024/03/28 10:33:53;;;;;;;9.77;3.92;;;20.60;99.90;;;;;;5055283;28;20541;-45
2024/03/28 10:36:24;;;;;;;8.80;3.78;;;20.60;99.90;;;;;;5055009;28;20106;-45
2024/03/28 10:39:08;;;;;;;8.75;3.50;;;20.60;99.90;;;;;;5054840;28;20082;-45
2024/03/28 10:41:38;;;;;;;6.45;3.13;;;20.60;99.90;;;;;;5055035;28;20032;-45
2024/03/28 10:44:04;;;;;;;7.28;3.45;;;20.60;99.90;;;;;;5054959;28;20116;-45
2024/03/28 10:46:31;;;;;;;9.70;3.20;;;20.60;99.90;;;;;;5054862;28;20024;-45
2024/03/28 10:49:06;;;;;;;9.00;3.20;;;20.60;99.90;;;;;;5054609;28;20025;-45
2024/03/28 10:51:40;;;;;;;8.73;3.17;;;20.60;99.90;;;;;;5054984;28;20107;-45
2024/03/28 10:54:20;;;;;;;5.78;2.47;;;20.60;99.90;;;;;;5037007;28;20025;-45
2024/03/28 10:56:47;;;;;;;7.65;3.08;;;20.60;99.90;;;;;;5054614;28;20068;-46
2024/03/28 10:59:14;;;;;;;7.78;3.10;;;20.60;99.90;;;;;;5054416;28;20052;-44
2024/03/28 11:01:40;;;;;;;;;;;20.70;99.90;;;;;;5037316;28;20047;-44
2024/03/28 11:04:11;;;;;;;8.40;2.90;;;20.70;99.90;;;;;;5054727;28;20004;-44
2024/03/28 11:06:38;;;;;;;5.32;2.90;;;20.70;99.90;;;;;;5054477;28;20029;-45
2024/03/28 11:09:05;;;;;;;8.23;3.67;;;20.70;99.90;;;;;;5054549;28;20029;-45
2024/03/28 11:11:31;;;;;;;7.22;3.38;;;20.70;99.90;;;;;;5054433;28;20024;-44
2024/03/28 11:13:58;;;;;;;7.53;2.72;;;20.70;99.90;;;;;;5054103;28;20074;-45
2024/03/28 11:16:24;;;;;;;6.13;2.67;;;20.70;99.90;;;;;;5054243;28;20477;-45
2024/03/28 11:18:50;;;;;;;6.55;3.00;;;20.70;99.90;;;;;;5054319;28;20040;-45
2024/03/28 11:21:32;;;;;;;6.05;3.13;;;20.80;99.90;;;;;;5036426;28;20028;-45
2024/03/28 11:23:58;;;;;;;7.65;3.05;;;20.70;99.90;;;;;;5036548;28;20037;-44
2024/03/28 11:26:25;;;;;;;9.55;3.10;;;20.80;99.90;;;;;;5036004;28;20043;-44
2024/03/28 11:29:00;;;;;;;6.07;2.78;;;20.80;99.90;;;;;;5053832;28;20098;-45
2024/03/28 11:31:27;;;;;;;5.43;2.55;;;20.80;99.90;;;;;;5054095;28;20108;-45
2024/03/28 11:33:59;;;;;;;5.85;2.97;;;20.80;99.90;;;;;;5053882;28;20029;-45
2024/03/28 11:36:32;;;;;;;6.40;2.38;;;20.80;99.90;;;;;;5053961;28;20025;-45
2024/03/28 11:38:59;;;;;;;6.70;2.65;;;20.70;99.90;;;;;;5053730;28;20385;-45
2024/03/28 11:41:26;;;;;;;6.22;2.55;;;20.70;99.90;;;;;;5053886;28;20565;-45
2024/03/28 11:43:54;;;;;;;7.90;3.70;;;20.70;99.90;;;;;;5053847;28;20100;-45
2024/03/28 11:46:23;;;;;;;;;;;20.70;99.90;;;;;;5054108;28;20025;-45
2024/03/28 11:48:54;;;;;;;9.23;2.92;;;20.70;99.90;;;;;;5053545;28;19915;-45
2024/03/28 11:51:20;;;;;;;3.80;2.13;;;20.70;99.90;;;;;;5053644;28;20530;-44
2024/03/28 11:53:47;;;;;;;8.55;2.80;;;20.70;99.90;;;;;;5053561;28;20032;-45
2024/03/28 11:56:14;;;;;;;4.80;2.22;;;20.70;99.90;;;;;;5053420;28;20052;-45
2024/03/28 11:58:39;;;;;;;9.55;3.30;;;20.70;99.90;;;;;;5053544;28;20029;-45
2024/03/28 12:01:06;;;;;;;4.55;2.40;;;20.70;99.90;;;;;;5053358;28;20116;-44
2024/03/28 12:03:32;;;;;;;4.85;2.08;;;20.70;99.90;;;;;;5053364;28;20033;-44
2024/03/28 12:05:59;;;;;;;4.20;2.38;;;20.70;99.90;;;;;;5053531;28;20024;-44
2024/03/28 12:08:30;;;;;;;5.68;2.15;;;20.70;99.90;;;;;;5035467;28;20055;-45
2024/03/28 12:11:00;;;;;;;7.53;1.98;;;20.70;99.90;;;;;;5035495;28;20024;-44
2024/03/28 12:13:26;;;;;;;6.25;2.47;;;20.70;99.90;;;;;;5053269;28;20029;-44
2024/03/28 12:15:59;;;;;;;7.47;2.60;;;20.70;99.90;;;;;;5053369;28;20087;-45
2024/03/28 12:18:26;;;;;;;6.60;2.17;;;20.70;99.90;;;;;;5053344;28;20099;-45
2024/03/28 12:21:00;;;;;;;3.17;1.85;;;20.60;99.90;;;;;;5053225;28;20445;-44
2024/03/28 12:23:26;;;;;;;5.35;2.20;;;20.60;99.90;;;;;;5053081;28;20443;-45
2024/03/28 12:25:52;;;;;;;8.10;1.90;;;20.70;99.90;;;;;;5052989;28;20028;-45
2024/03/28 12:28:24;;;;;;;6.60;2.15;;;20.70;99.90;;;;;;5053225;28;20056;-44
2024/03/28 12:30:54;;;;;;;5.35;1.88;;;20.60;99.90;;;;;;5053294;28;20017;-44
2024/03/28 12:33:21;;;;;;;6.50;2.17;;;20.70;99.90;;;;;;5053264;28;20026;-44
2024/03/28 12:35:52;;;;;;;3.25;1.52;;;20.70;99.90;;;;;;5053200;28;20021;-45
2024/03/28 12:38:21;;;;;;;6.97;1.95;;;20.70;99.90;;;;;;5052486;28;20033;-44
2024/03/28 12:40:49;;;;;;;4.70;1.98;;;20.70;99.90;;;;;;5052978;28;20369;-45
2024/03/28 12:43:15;;;;;;;;;;;20.70;99.90;;;;;;5053274;28;20036;-44
2024/03/28 12:45:42;;;;;;;4.97;2.07;;;20.70;99.90;;;;;;5053064;28;19909;-45